Stacja Pogody
Warszawa Praga-Północ

Szerokość 52°15'43"N Długość 21°01'22"E Wysokość 110m n.p.m.


236 dzień roku.   Do końca pozostalo 129 dni.   Od wczoraj ubyło 4 min. i 10 sek. dnia.
Wschód Słońca 05:33 Górowanie Słońca 12:38 Zachód Słońca 19:42 panna
Data juliańska 2457990.777 Odległość Słońca 151202561 km Średn. kątowa Słońca 0,316°
Wschód Księżyca 08:33 Zachód Księżyca 21:02 Wiek Księżyca 3 dni Moon
Widoczność Księżyca 7,04% Odległość Księżyca 387359 km Średn. kątowa Księżyca 0,308°
Dzień krótszy od najdłuższego o: 02:38 Długość dnia 14:09 Imieniny Jerzego, Bartosza, Haliny



  Aktualizacja: 24-08-2017 06:37:45
TEMPERATURA
Aktualnie: 11.6°C →
Temperatura odczuwalna:13.2°C
Punkt rosy10.7°C
WIATR
Średnia prędkość: 5.0km/h ↑
Prędkość w podmuchach:7.2km/h
Przepływ w ciągu doby:177.9km
Kierunek wiatru:360°
CIŚNIENIE
Względne:1015.9hPa
Trend ciśnienia:stabilne
WILGOTNOŚĆ
Wilgotność względna: 95% →
Podstawa chmur410m
DESZCZ
W ostatniej godzinie: 0.0mm
Dzisiaj:0.0mm
W tym miesiącu:52.2mm
METAR
EPWA 240400Z 29004KT 8000 SCT005 10/10 Q1015 TEMPO 5000 BR BKN005
Ostrzeżenia burzowe
Prognoza 12-to godzinna (prawdopodobieństwo 75%):   Dobra pogoda prognoza





a  a a